Time;durP1;ratioP1;P1;durP2;ratioP2;P2;SDS_P1;SDS_P2;PMS_P1;PMS_P2;Temp;Humidity;BMP_temperature;BMP_pressure;BME280_temperature;BME280_humidity;BME280_pressure;Samples;Min_cycle;Max_cycle;Signal;HPM_P1;HPM_P2
2023/04/25 05:01:59;;;;;;;;;4.00;4.00;;;;;12.04;73.09;-19533.44;5207655;22;45877;-88
2023/04/25 05:04:25;;;;;;;;;6.00;4.00;;;;;12.04;73.17;-19533.44;4930311;28;45490;-87
2023/04/25 05:06:51;;;;;;;;;4.00;4.00;;;;;12.16;73.46;-19536.53;4936618;28;47571;-86
2023/04/25 05:09:16;;;;;;;;;5.00;5.00;;;;;12.01;73.31;-19532.75;4933730;28;45467;-88
2023/04/25 05:11:41;;;;;;;;;5.33;5.00;;;;;12.18;73.23;-19537.06;4926307;28;45665;-86
2023/04/25 05:14:07;;;;;;;;;3.67;3.33;;;;;12.19;72.93;-19537.34;4925144;28;46045;-87
2023/04/25 05:16:32;;;;;;;;;5.00;5.00;;;;;11.76;73.30;-19526.16;4930299;28;47129;-87
2023/04/25 05:18:57;;;;;;;;;5.00;3.33;;;;;11.75;73.34;-19525.75;4927311;28;49164;-87
2023/04/25 05:21:23;;;;;;;;;5.33;4.33;;;;;12.07;73.19;-19534.22;4947310;28;45631;-87
2023/04/25 05:23:49;;;;;;;;;3.00;3.00;;;;;11.88;73.78;-19529.13;4930896;28;45962;-87
2023/04/25 05:26:14;;;;;;;;;7.33;5.67;;;;;11.65;73.50;-19523.06;4927761;28;46629;-86
2023/04/25 05:28:41;;;;;;;;;6.33;4.33;;;;;11.92;73.88;-19530.19;4928589;28;45525;-88
2023/04/25 05:31:07;;;;;;;;;5.00;5.00;;;;;12.10;73.62;-19534.91;4929181;28;46113;-87
2023/04/25 05:33:32;;;;;;;;;6.00;6.00;;;;;12.33;73.73;-19540.97;4960156;28;45487;-88
2023/04/25 05:35:57;;;;;;;;;0.00;0.00;;;;;12.33;73.16;-19541.09;4929466;28;51912;-87
2023/04/25 05:38:23;;;;;;;;;4.00;4.00;;;;;11.98;73.55;-19531.81;4928423;28;45586;-87
2023/04/25 05:40:48;;;;;;;;;6.67;5.33;;;;;11.96;73.40;-19531.28;4929864;28;45774;-87
2023/04/25 05:43:13;;;;;;;;;7.67;6.33;;;;;12.02;73.84;-19532.88;4927462;28;45623;-87
2023/04/25 05:45:39;;;;;;;;;7.00;6.33;;;;;12.23;73.75;-19538.41;4954158;28;51237;-87
2023/04/25 05:48:04;;;;;;;;;5.00;5.00;;;;;12.07;73.67;-19534.22;4934712;28;45570;-87
2023/04/25 05:50:30;;;;;;;;;8.00;6.00;;;;;12.28;74.07;-19539.75;4932996;28;46084;-87
2023/04/25 05:52:55;;;;;;;;;6.00;6.00;;;;;12.35;74.07;-19541.50;4932284;28;45561;-89
2023/04/25 05:55:20;;;;;;;;;5.00;5.00;;;;;12.28;73.91;-19539.63;4934367;28;53500;-90
2023/04/25 05:57:45;;;;;;;;;3.67;3.33;;;;;12.09;74.03;-19534.63;4936050;28;45722;-88
2023/04/25 06:00:15;;;;;;;;;6.67;6.67;;;;;12.38;73.66;-19542.44;4932548;28;45735;-85
2023/04/25 06:02:41;;;;;;;;;5.00;4.67;;;;;12.44;73.81;-19544.06;5001622;28;47251;-86
2023/04/25 06:05:06;;;;;;;;;7.00;6.33;;;;;12.08;73.69;-19534.50;4933813;28;46259;-87
2023/04/25 06:07:32;;;;;;;;;3.67;3.67;;;;;12.47;74.09;-19544.72;4934574;28;45400;-89
2023/04/25 06:09:57;;;;;;;;;5.33;5.33;;;;;12.39;73.82;-19542.59;4934567;28;45427;-89
2023/04/25 06:12:22;;;;;;;;;6.67;5.00;;;;;12.36;73.93;-19541.91;4933757;28;45389;-87
2023/04/25 06:14:48;;;;;;;;;7.67;4.00;;;;;12.08;73.58;-19534.50;4940611;28;48471;-87
2023/04/25 06:17:13;;;;;;;;;6.00;6.00;;;;;12.18;73.86;-19537.19;4930737;28;45756;-88
2023/04/25 06:19:39;;;;;;;;;8.00;5.67;;;;;12.47;73.68;-19544.72;4929182;28;45516;-86
2023/04/25 06:22:04;;;;;;;;;8.33;8.33;;;;;12.43;73.70;-19543.78;4927138;28;45544;-87
2023/04/25 06:24:29;;;;;;;;;5.67;5.67;;;;;12.25;73.24;-19539.09;4925690;28;46140;-87
2023/04/25 06:26:55;;;;;;;;;5.00;5.00;;;;;12.23;73.39;-19538.53;4927336;28;47001;-89
2023/04/25 06:29:20;;;;;;;;;6.33;3.67;;;;;12.24;73.34;-19538.81;4956187;28;45521;-88
2023/04/25 06:31:46;;;;;;;;;4.33;3.33;;;;;12.36;73.18;-19541.78;4922684;28;45594;-89
2023/04/25 06:34:11;;;;;;;;;3.00;3.00;;;;;12.61;73.31;-19548.38;5000264;28;48315;-89
2023/04/25 06:36:37;;;;;;;;;2.67;2.67;;;;;12.65;73.09;-19549.44;5016700;28;45514;-90
2023/04/25 06:39:02;;;;;;;;;14.00;11.33;;;;;12.32;73.23;-19540.84;4973875;28;48207;-88
2023/04/25 06:41:27;;;;;;;;;10.00;9.00;;;;;12.64;72.99;-19549.31;4987827;28;45792;-89
2023/04/25 06:43:53;;;;;;;;;6.00;4.67;;;;;12.54;73.00;-19546.63;4935356;28;45463;-89
2023/04/25 06:46:18;;;;;;;;;1.00;1.00;;;;;12.51;72.83;-19545.81;5001115;28;45490;-88
2023/04/25 06:48:43;;;;;;;;;14.33;9.00;;;;;12.56;72.53;-19547.03;4990472;28;45588;-88
2023/04/25 06:51:09;;;;;;;;;9.00;9.00;;;;;12.72;72.85;-19551.34;4935765;28;45415;-89
2023/04/25 06:53:34;;;;;;;;;8.67;5.67;;;;;12.53;72.68;-19546.22;4934496;28;46457;-87
2023/04/25 06:56:00;;;;;;;;;4.00;3.00;;;;;12.53;72.83;-19546.22;4935386;28;45414;-89
2023/04/25 06:58:26;;;;;;;;;4.00;3.33;;;;;12.67;72.63;-19550.13;4931674;28;45570;-89
2023/04/25 07:00:51;;;;;;;;;15.33;11.00;;;;;12.92;72.56;-19556.44;4950451;28;45352;-87
2023/04/25 07:03:17;;;;;;;;;7.33;7.33;;;;;12.91;72.56;-19556.31;5036014;28;46560;-85
2023/04/25 07:05:42;;;;;;;;;6.33;6.33;;;;;12.67;72.18;-19550.00;5023918;28;45519;-87
2023/04/25 07:08:07;;;;;;;;;9.00;7.67;;;;;12.99;72.51;-19558.31;5032968;28;45822;-84
2023/04/25 07:10:33;;;;;;;;;4.33;4.33;;;;;12.98;72.43;-19558.06;5035559;28;45430;-86
2023/04/25 07:12:58;;;;;;;;;7.33;7.33;;;;;12.86;72.47;-19555.09;5035048;28;46068;-85
2023/04/25 07:15:23;;;;;;;;;6.00;6.00;;;;;12.39;72.22;-19542.72;5024784;28;45970;-87
2023/04/25 07:17:48;;;;;;;;;10.33;8.67;;;;;12.91;72.27;-19556.31;5032159;28;45672;-88
2023/04/25 07:20:14;;;;;;;;;8.33;8.33;;;;;12.88;72.35;-19555.63;5036051;28;45823;-86
2023/04/25 07:22:39;;;;;;;;;5.00;5.00;;;;;12.96;72.24;-19557.53;5034869;28;46045;-87
2023/04/25 07:25:05;;;;;;;;;7.67;7.00;;;;;12.94;71.99;-19556.97;5035384;28;45482;-84
2023/04/25 07:27:31;;;;;;;;;8.33;8.33;;;;;12.80;72.18;-19553.47;5035443;28;45653;-86
2023/04/25 07:29:57;;;;;;;;;7.67;7.67;;;;;12.73;72.34;-19551.59;5036109;28;45485;-86
2023/04/25 07:32:22;;;;;;;;;8.67;7.67;;;;;12.40;72.23;-19542.84;5035632;28;46486;-86
2023/04/25 07:34:47;;;;;;;;;8.00;7.00;;;;;12.40;72.08;-19542.84;5017349;28;45834;-85
2023/04/25 07:37:14;;;;;;;;;8.67;7.67;;;;;12.51;71.63;-19545.81;5035484;28;45510;-88
2023/04/25 07:39:39;;;;;;;;;8.67;6.67;;;;;12.57;71.33;-19547.28;5036238;28;45582;-88
2023/04/25 07:42:07;;;;;;;;;11.00;8.33;;;;;12.63;71.31;-19549.03;5035401;28;47012;-85
2023/04/25 07:44:38;;;;;;;;;8.00;6.00;;;;;12.75;71.00;-19552.13;5035765;28;45497;-85
2023/04/25 07:47:06;;;;;;;;;10.00;8.33;;;;;12.64;71.08;-19549.19;5035838;28;45423;-86
2023/04/25 07:49:32;;;;;;;;;10.00;8.67;;;;;12.79;71.09;-19553.22;5035805;28;45482;-86
2023/04/25 07:51:57;;;;;;;;;7.00;6.33;;;;;12.70;71.12;-19550.78;5034988;28;46097;-87
2023/04/25 07:54:23;;;;;;;;;6.33;6.33;;;;;12.99;70.89;-19558.31;5035457;28;47828;-86
2023/04/25 07:56:48;;;;;;;;;9.67;8.33;;;;;13.10;71.17;-19561.28;5017788;28;45452;-84
2023/04/25 07:59:13;;;;;;;;;10.33;7.67;;;;;13.05;70.63;-19560.06;5035811;28;45533;-86
2023/04/25 08:01:39;;;;;;;;;7.00;6.67;;;;;13.18;69.88;-19563.44;5035231;28;45802;-86
2023/04/25 08:04:04;;;;;;;;;7.67;6.67;;;;;13.23;69.70;-19564.78;5035506;28;45883;-84
2023/04/25 08:06:31;;;;;;;;;5.67;5.67;;;;;13.35;69.92;-19567.88;5038743;28;46043;-86
2023/04/25 08:08:56;;;;;;;;;1.00;1.00;;;;;13.19;69.82;-19563.72;5039321;28;45565;-85
2023/04/25 08:11:21;;;;;;;;;7.67;7.67;;;;;13.07;69.83;-19560.63;5038650;28;45457;-84
2023/04/25 08:13:47;;;;;;;;;6.33;5.33;;;;;13.07;69.55;-19560.47;5038863;28;45525;-85
2023/04/25 08:16:12;;;;;;;;;7.67;5.67;;;;;13.30;69.48;-19566.66;5038541;28;49384;-86
2023/04/25 08:18:37;;;;;;;;;5.67;5.67;;;;;13.25;69.40;-19565.31;5020851;28;45489;-86
2023/04/25 08:21:03;;;;;;;;;5.33;4.00;;;;;13.19;69.16;-19563.72;5038522;28;46864;-85
2023/04/25 08:23:29;;;;;;;;;8.33;7.67;;;;;13.27;69.54;-19565.88;5038437;28;45545;-85
2023/04/25 08:25:54;;;;;;;;;3.33;2.67;;;;;13.34;69.24;-19567.59;5038728;28;45913;-85
2023/04/25 08:28:19;;;;;;;;;4.00;4.00;;;;;13.20;69.28;-19563.84;5038985;28;45459;-86
2023/04/25 08:30:44;;;;;;;;;3.00;3.00;;;;;13.01;69.19;-19559.00;5020169;28;53850;-86
2023/04/25 08:33:10;;;;;;;;;3.00;3.00;;;;;13.30;69.06;-19566.53;5038133;28;45485;-86
2023/04/25 08:35:36;;;;;;;;;4.00;2.33;;;;;12.93;68.76;-19556.72;5038658;28;45518;-85
2023/04/25 08:38:01;;;;;;;;;3.33;3.00;;;;;12.88;69.05;-19555.63;5038692;28;45359;-84
2023/04/25 08:40:30;;;;;;;;;5.33;3.33;;;;;12.84;68.08;-19554.56;5038279;28;45835;-86
2023/04/25 08:42:57;;;;;;;;;3.00;3.00;;;;;12.97;68.93;-19557.94;5038265;28;45533;-86
2023/04/25 08:45:24;;;;;;;;;7.67;5.33;;;;;12.79;68.41;-19553.22;5038469;28;45490;-85
2023/04/25 08:47:52;;;;;;;;;5.00;3.67;;;;;13.03;68.44;-19559.41;5038484;28;45496;-85
2023/04/25 08:50:21;;;;;;;;;4.00;2.00;;;;;13.29;68.47;-19566.25;5038095;28;45430;-85
2023/04/25 08:52:47;;;;;;;;;4.00;4.00;;;;;13.35;68.70;-19567.88;5038227;28;45576;-86
2023/04/25 08:55:14;;;;;;;;;6.00;5.00;;;;;13.23;68.24;-19564.66;5038338;28;45495;-87
2023/04/25 08:57:42;;;;;;;;;3.00;3.00;;;;;13.46;68.23;-19570.84;5038641;28;45738;-86
2023/04/25 09:00:09;;;;;;;;;3.33;3.33;;;;;13.47;67.98;-19571.09;5037877;28;46441;-85
2023/04/25 09:02:35;;;;;;;;;5.33;2.33;;;;;13.41;67.76;-19569.34;5019381;28;45530;-85
2023/04/25 09:05:04;;;;;;;;;3.00;3.00;;;;;13.19;67.72;-19563.72;5038196;28;45488;-86
2023/04/25 09:07:29;;;;;;;;;3.00;3.00;;;;;13.41;67.68;-19569.34;5038321;28;45495;-86
2023/04/25 09:09:55;;;;;;;;;5.33;4.00;;;;;13.53;67.71;-19572.59;5037653;28;45536;-86
2023/04/25 09:12:21;;;;;;;;;3.00;3.00;;;;;14.62;67.17;-19601.22;5036656;28;46255;-85
2023/04/25 09:15:06;;;;;;;;;4.67;4.67;;;;;14.89;66.54;-19608.31;5019788;28;45544;-86
2023/04/25 09:17:32;;;;;;;;;4.33;3.67;;;;;14.98;66.66;-19610.75;5020085;28;45753;-87
2023/04/25 09:20:11;;;;;;;;;1.33;1.33;;;;;15.07;66.06;-19612.88;5037524;28;46395;-85
2023/04/25 09:22:37;;;;;;;;;2.67;2.67;;;;;14.92;65.51;-19609.00;5037724;28;45485;-84
2023/04/25 09:25:11;;;;;;;;;3.00;1.67;;;;;14.96;65.59;-19610.06;5037808;28;45462;-85
2023/04/25 09:27:36;;;;;;;;;5.67;3.00;;;;;14.47;65.16;-19597.31;5037791;28;45965;-86
2023/04/25 09:30:02;;;;;;;;;3.00;3.00;;;;;14.72;65.02;-19603.75;5037410;28;46546;-85
2023/04/25 09:32:28;;;;;;;;;2.00;2.00;;;;;14.70;65.04;-19603.22;5037386;28;45478;-86
2023/04/25 09:34:57;;;;;;;;;3.33;1.67;;;;;14.71;65.21;-19603.50;5037485;28;45367;-85
2023/04/25 09:37:24;;;;;;;;;3.00;2.00;;;;;14.67;65.48;-19602.41;5037750;28;45447;-85
2023/04/25 09:39:53;;;;;;;;;3.00;3.00;;;;;14.35;64.62;-19594.22;5037451;28;47362;-86
2023/04/25 09:42:22;;;;;;;;;6.33;3.00;;;;;14.60;65.21;-19600.53;5036566;28;45689;-85
2023/04/25 09:44:47;;;;;;;;;2.67;2.67;;;;;14.51;64.29;-19598.38;5024886;28;45553;-85
2023/04/25 09:47:14;;;;;;;;;2.00;2.00;;;;;14.49;64.69;-19597.72;5037386;28;45438;-85
2023/04/25 09:49:44;;;;;;;;;2.00;2.00;;;;;14.58;64.81;-19600.13;5037311;28;47216;-85
2023/04/25 09:52:15;;;;;;;;;2.00;2.00;;;;;14.41;64.65;-19595.56;5037249;28;45408;-84
2023/04/25 09:54:41;;;;;;;;;2.33;2.33;;;;;14.84;64.66;-19606.97;5037335;28;45718;-86
2023/04/25 09:57:15;;;;;;;;;4.00;3.00;;;;;15.01;63.81;-19611.28;5037548;28;45473;-85
2023/04/25 09:59:51;;;;;;;;;2.00;2.00;;;;;15.26;64.10;-19617.84;5036986;28;46450;-86
2023/04/25 10:02:20;;;;;;;;;3.33;3.33;;;;;15.37;64.14;-19620.81;5036450;28;45395;-85
2023/04/25 10:04:49;;;;;;;;;2.00;2.00;;;;;15.35;63.42;-19620.41;5037147;28;45458;-86
2023/04/25 10:07:14;;;;;;;;;2.00;2.00;;;;;14.97;62.83;-19610.34;5037368;28;45490;-84
2023/04/25 10:09:41;;;;;;;;;3.00;2.33;;;;;15.19;62.68;-19616.25;5036979;28;46766;-85
2023/04/25 10:12:07;;;;;;;;;2.00;2.00;;;;;15.40;62.89;-19621.59;5036845;28;45535;-86
2023/04/25 10:14:34;;;;;;;;;3.00;3.00;;;;;15.27;62.91;-19618.13;5019206;28;45508;-86
2023/04/25 10:17:00;;;;;;;;;2.00;2.00;;;;;15.23;62.60;-19617.19;5036865;28;45460;-85
2023/04/25 10:19:26;;;;;;;;;2.00;2.00;;;;;15.17;62.34;-19615.56;5036808;28;46758;-85
2023/04/25 10:21:54;;;;;;;;;2.00;2.00;;;;;15.10;62.45;-19613.81;5036802;28;45384;-86
2023/04/25 10:24:20;;;;;;;;;1.00;1.00;;;;;15.04;62.74;-19612.09;5037080;28;45827;-85
2023/04/25 10:26:47;;;;;;;;;3.00;2.00;;;;;14.99;62.64;-19610.88;5036314;28;45462;-84
2023/04/25 10:29:12;;;;;;;;;2.00;2.00;;;;;14.90;62.00;-19608.59;5036193;28;46249;-85
2023/04/25 10:31:47;;;;;;;;;2.33;1.00;;;;;14.73;62.06;-19604.03;5036700;28;45428;-85
2023/04/25 10:34:12;;;;;;;;;1.00;1.00;;;;;14.43;61.99;-19596.22;5036748;28;45450;-85
2023/04/25 10:36:38;;;;;;;;;6.33;2.00;;;;;14.84;62.39;-19606.84;5037009;28;45519;-85
2023/04/25 10:39:08;;;;;;;;;2.00;1.00;;;;;14.85;62.33;-19607.25;5036478;28;46135;-85
2023/04/25 10:41:50;;;;;;;;;3.00;1.00;;;;;14.89;62.63;-19608.19;5036490;28;45477;-84
2023/04/25 10:44:16;;;;;;;;;1.00;1.00;;;;;14.88;61.75;-19607.91;5036387;28;45648;-85
2023/04/25 10:46:43;;;;;;;;;3.33;2.00;;;;;14.76;61.72;-19604.84;5036957;28;45415;-86
2023/04/25 10:49:10;;;;;;;;;0.67;0.67;;;;;14.89;62.10;-19608.31;5036433;28;46643;-85
2023/04/25 10:51:36;;;;;;;;;1.67;1.67;;;;;14.57;61.51;-19600.00;5036379;28;45589;-86
2023/04/25 10:54:05;;;;;;;;;2.00;2.00;;;;;15.10;61.11;-19613.81;5036505;28;45481;-85
2023/04/25 10:56:33;;;;;;;;;2.00;2.00;;;;;15.11;61.61;-19613.97;5036835;28;45724;-86
2023/04/25 10:59:12;;;;;;;;;1.00;1.00;;;;;15.04;60.93;-19612.22;5035978;28;45506;-85
2023/04/25 11:01:45;;;;;;;;;1.00;1.00;;;;;14.96;60.06;-19608.13;5035942;28;45485;-85
2023/04/25 11:04:21;;;;;;;;;2.00;2.00;;;;;15.07;60.66;-19610.94;5036392;28;45489;-84
2023/04/25 11:07:01;;;;;;;;;2.00;1.00;;;;;14.96;60.82;-19608.25;5036547;28;45830;-85
2023/04/25 11:09:27;;;;;;;;;1.00;1.00;;;;;14.63;60.75;-19599.38;5018037;28;47405;-85
2023/04/25 11:11:55;;;;;;;;;0.33;0.33;;;;;15.07;60.32;-19610.94;5036026;28;45391;-85
2023/04/25 11:14:20;;;;;;;;;1.00;1.00;;;;;14.78;60.06;-19603.56;5036018;28;45445;-85
2023/04/25 11:16:46;;;;;;;;;1.33;1.33;;;;;14.77;60.66;-19603.16;5036315;28;45447;-85
2023/04/25 11:19:11;;;;;;;;;1.00;1.00;;;;;15.02;60.61;-19276.50;5035985;28;45553;-85
2023/04/25 11:21:37;;;;;;;;;0.00;0.00;;;;;14.95;60.14;-19274.78;5035766;28;47899;-86
2023/04/25 11:24:02;;;;;;;;;1.00;1.00;;;;;14.54;60.41;-19264.25;5036053;28;45462;-84
2023/04/25 11:26:30;;;;;;;;;3.00;2.00;;;;;14.98;59.99;-19275.56;5036422;28;45474;-85
2023/04/25 11:29:00;;;;;;;;;1.00;1.00;;;;;14.93;59.91;-18941.03;5035466;28;45486;-85
2023/04/25 11:31:26;;;;;;;;;1.67;1.67;;;;;14.97;59.61;-18942.06;5035592;28;45549;-86
2023/04/25 11:33:54;;;;;;;;;1.00;1.00;;;;;14.97;60.05;-18942.06;5036056;28;45479;-85
2023/04/25 11:36:20;;;;;;;;;5.00;0.33;;;;;14.80;59.85;-18937.56;5036077;28;45526;-85
2023/04/25 11:38:45;;;;;;;;;2.00;2.00;;;;;14.91;59.95;-18940.38;5035279;28;45590;-85
2023/04/25 11:41:11;;;;;;;;;2.33;1.00;;;;;14.67;59.68;-18934.47;5035704;28;45451;-85
2023/04/25 11:43:37;;;;;;;;;1.00;1.00;;;;;14.55;60.03;-18931.50;5035288;28;45423;-85
2023/04/25 11:46:07;;;;;;;;;1.33;1.33;;;;;14.89;59.97;-18939.88;5035890;28;45503;-85
2023/04/25 11:48:39;;;;;;;;;1.33;1.00;;;;;14.69;60.00;-18934.97;5035312;28;46224;-85
2023/04/25 11:51:05;;;;;;;;;1.00;1.00;;;;;14.71;59.59;-18602.25;5035550;28;45490;-85
2023/04/25 11:53:30;;;;;;;;;2.00;2.00;;;;;14.98;59.52;-18942.19;5035592;28;45502;-85
2023/04/25 11:55:56;;;;;;;;;2.67;1.67;;;;;14.87;59.96;-18939.50;5035766;28;45832;-85
2023/04/25 11:58:21;;;;;;;;;0.33;0.33;;;;;14.92;59.66;-18940.78;5017119;28;47009;-85
2023/04/25 12:00:47;;;;;;;;;3.00;2.00;;;;;15.02;59.83;-18943.22;5035225;28;45577;-86
2023/04/25 12:03:12;;;;;;;;;1.67;1.67;;;;;15.21;59.80;-18948.00;5035537;28;45427;-85
2023/04/25 12:05:39;;;;;;;;;2.00;2.00;;;;;15.20;59.59;-18947.72;5035528;28;45486;-85
2023/04/25 12:08:16;;;;;;;;;1.67;1.67;;;;;15.15;59.69;-18946.44;5035213;28;46158;-84
2023/04/25 12:10:44;;;;;;;;;1.00;1.00;;;;;15.33;59.45;-18951.06;5034967;28;45460;-86
2023/04/25 12:13:25;;;;;;;;;2.00;2.00;;;;;15.56;59.78;-18956.88;5035331;28;45739;-85
2023/04/25 12:15:50;;;;;;;;;0.00;0.00;;;;;15.36;59.21;-18951.72;5035729;28;45576;-85
2023/04/25 12:18:21;;;;;;;;;3.00;2.00;;;;;15.71;59.35;-18960.59;5035085;28;46338;-85
2023/04/25 12:20:46;;;;;;;;;3.33;2.00;;;;;15.60;58.50;-18957.78;5035058;28;45482;-85
2023/04/25 12:23:12;;;;;;;;;0.33;0.33;;;;;15.46;58.59;-18954.28;5017272;28;45526;-86
2023/04/25 12:25:38;;;;;;;;;1.33;1.00;;;;;15.95;58.57;-18632.72;5035241;28;45809;-84
2023/04/25 12:28:10;;;;;;;;;3.00;3.00;;;;;16.03;57.89;-18300.88;5034907;28;47129;-86
2023/04/25 12:30:58;;;;;;;;;1.67;1.67;;;;;16.12;58.35;-18637.00;5034945;28;45437;-86
2023/04/25 12:33:26;;;;;;;;;1.33;1.33;;;;;16.21;57.52;-17971.34;5035181;28;45515;-86
2023/04/25 12:35:52;;;;;;;;;2.00;2.00;;;;;16.13;57.13;-17969.28;5035566;28;45671;-85
2023/04/25 12:38:29;;;;;;;;;2.00;2.00;;;;;16.34;57.58;-17974.22;5034751;28;45622;-85
2023/04/25 12:40:55;;;;;;;;;3.00;3.00;;;;;16.25;56.04;-16970.09;5034427;28;45463;-86
2023/04/25 12:43:21;;;;;;;;;3.67;2.00;;;;;16.31;56.01;-16302.97;5035041;28;45414;-86
2023/04/25 12:45:51;;;;;;;;;1.00;1.00;;;;;16.27;56.30;-16302.03;5035201;28;45576;-86
2023/04/25 12:48:17;;;;;;;;;1.00;1.00;;;;;16.16;55.19;-15297.31;5034650;28;45859;-85
2023/04/25 12:50:43;;;;;;;;;2.00;2.00;;;;;16.10;56.29;-15296.13;5035735;28;45630;-86
2023/04/25 12:53:08;;;;;;;;;3.67;2.00;;;;;16.06;56.13;-14961.16;5038355;28;45880;-84
2023/04/25 12:55:33;;;;;;;;;0.33;0.33;;;;;16.06;56.40;-15295.31;5037691;28;48749;-85
2023/04/25 12:57:59;;;;;;;;;1.00;1.00;;;;;15.88;55.72;-14289.66;5038149;28;46327;-85
2023/04/25 13:00:24;;;;;;;;;1.00;1.00;;;;;15.88;56.54;-14623.81;5037477;28;51254;-86
2023/04/25 13:02:50;;;;;;;;;2.00;2.00;;;;;15.92;56.42;-14624.53;5038247;28;45468;-86
2023/04/25 13:05:15;;;;;;;;;2.00;2.00;;;;;15.68;56.92;-14286.03;5020456;28;45595;-87
2023/04/25 13:07:40;;;;;;;;;2.00;2.00;;;;;15.64;56.49;-14285.41;5037672;28;50267;-86
2023/04/25 13:10:07;;;;;;;;;2.67;1.00;;;;;15.80;57.01;-14288.22;5037587;28;45596;-85
2023/04/25 13:12:32;;;;;;;;;1.00;1.00;;;;;15.63;56.63;-14285.31;5038132;28;45441;-85
2023/04/25 13:14:58;;;;;;;;;1.00;1.00;;;;;15.59;56.28;-13950.50;5038361;28;45771;-84
2023/04/25 13:17:23;;;;;;;;;2.00;2.00;;;;;15.71;55.98;-13618.44;5037717;28;46843;-85
2023/04/25 13:19:48;;;;;;;;;1.00;1.00;;;;;15.80;56.13;-13954.19;5037643;28;50583;-86
2023/04/25 13:22:16;;;;;;;;;1.00;1.00;;;;;15.53;56.25;-13615.53;5037874;28;45492;-85
2023/04/25 13:24:42;;;;;;;;;1.67;1.67;;;;;15.87;56.52;-13955.25;5037661;28;45475;-86
2023/04/25 13:27:07;;;;;;;;;1.33;1.33;;;;;15.93;56.38;-13956.28;5037612;28;47189;-86
2023/04/25 13:29:35;;;;;;;;;3.00;1.00;;;;;15.94;56.02;-13956.56;5037536;28;45670;-85
2023/04/25 13:32:01;;;;;;;;;1.00;1.00;;;;;15.82;55.98;-13954.53;5037779;28;45388;-86
2023/04/25 13:34:27;;;;;;;;;1.00;1.00;;;;;15.79;55.84;-14288.03;5038014;28;45428;-85
2023/04/25 13:36:52;;;;;;;;;1.00;1.00;;;;;16.21;56.03;-14295.47;5037414;28;46273;-86
2023/04/25 13:39:17;;;;;;;;;1.00;1.00;;;;;16.10;55.55;-13624.88;5036640;28;58534;-86
2023/04/25 13:41:43;;;;;;;;;1.00;1.00;;;;;16.13;55.04;-13291.13;5037454;28;45613;-85
2023/04/25 13:44:08;;;;;;;;;1.00;1.00;;;;;16.08;55.06;-12955.88;5037770;28;45399;-86
2023/04/25 13:46:33;;;;;;;;;1.00;1.00;;;;;16.19;55.06;-12957.63;5037237;28;45459;-85
2023/04/25 13:48:59;;;;;;;;;1.00;1.00;;;;;15.76;55.27;-12951.03;5037322;28;45475;-85
2023/04/25 13:51:25;;;;;;;;;1.00;1.00;;;;;16.15;54.78;-12288.13;5037311;28;45464;-85
2023/04/25 13:53:51;;;;;;;;;1.00;1.00;;;;;15.99;54.90;-11951.50;5019580;28;45491;-86
2023/04/25 13:56:16;;;;;;;;;1.00;1.00;;;;;15.93;55.22;-11950.56;5037055;28;45598;-85
2023/04/25 13:58:41;;;;;;;;;1.00;1.00;;;;;15.75;54.69;-11613.78;5037296;28;45714;-86
2023/04/25 14:01:07;;;;;;;;;4.00;4.00;;;;;15.95;54.69;-11282.09;5037011;28;46044;-86
2023/04/25 14:03:32;;;;;;;;;2.00;2.00;;;;;15.97;54.86;-11282.34;5037597;28;45678;-85
2023/04/25 14:05:58;;;;;;;;;1.00;1.00;;;;;15.84;55.22;-11280.66;5037134;28;46309;-85
2023/04/25 14:08:23;;;;;;;;;0.00;0.00;;;;;15.57;54.76;-11277.16;5036751;28;45464;-86
2023/04/25 14:10:48;;;;;;;;;0.00;0.00;;;;;15.70;54.92;-11278.78;5037054;28;45585;-86
2023/04/25 14:13:14;;;;;;;;;1.00;1.00;;;;;15.67;54.88;-10944.09;5037545;28;45522;-86
2023/04/25 14:15:40;;;;;;;;;1.00;1.00;;;;;15.46;54.97;-10607.34;5036924;28;46386;-86
2023/04/25 14:18:05;;;;;;;;;0.33;0.33;;;;;15.70;54.68;-10610.13;5036869;28;45483;-86
2023/04/25 14:20:30;;;;;;;;;1.00;1.00;;;;;15.79;54.58;-10276.78;5036941;28;45538;-85
2023/04/25 14:22:57;;;;;;;;;1.67;1.67;;;;;15.94;54.15;-10278.50;5036851;28;45604;-86
2023/04/25 14:25:23;;;;;;;;;2.00;1.00;;;;;15.85;54.50;-9942.91;5036931;28;45497;-86
2023/04/25 14:27:49;;;;;;;;;1.33;1.33;;;;;15.75;54.12;-9607.47;5036845;28;45736;-86
2023/04/25 14:30:16;;;;;;;;;1.00;1.00;;;;;15.75;54.34;-9607.47;5036872;28;45440;-86
2023/04/25 14:32:42;;;;;;;;;1.00;1.00;;;;;15.93;54.05;-9609.28;5037063;28;45379;-85
2023/04/25 14:35:07;;;;;;;;;2.00;2.00;;;;;15.66;54.08;-9272.06;5018645;28;48649;-84
2023/04/25 14:37:33;;;;;;;;;1.33;1.33;;;;;15.93;54.20;-9274.66;5036435;28;45548;-85
2023/04/25 14:39:58;;;;;;;;;1.00;1.00;;;;;15.89;53.63;-8939.69;5036792;28;45434;-85
2023/04/25 14:42:23;;;;;;;;;1.00;1.00;;;;;15.89;53.70;-8939.69;5037146;28;45398;-86
2023/04/25 14:44:49;;;;;;;;;1.00;1.00;;;;;15.85;53.60;-8270.03;5036371;28;45548;-86
2023/04/25 14:47:15;;;;;;;;;0.00;0.00;;;;;15.93;53.39;-8270.69;5036468;28;45343;-86
2023/04/25 14:49:41;;;;;;;;;1.00;1.00;;;;;16.00;53.16;-7936.50;5036585;28;45368;-86
2023/04/25 14:52:06;;;;;;;;;1.00;1.00;;;;;15.94;53.61;-8270.81;5036522;28;45371;-86
2023/04/25 14:54:32;;;;;;;;;1.00;1.00;;;;;16.02;53.55;-8271.47;5036455;28;45384;-86
2023/04/25 14:56:57;;;;;;;;;0.00;0.00;;;;;16.17;53.24;-7268.06;5036317;28;45432;-86
2023/04/25 14:59:23;;;;;;;;;1.00;1.00;;;;;15.81;53.13;-7265.75;5036409;28;45440;-85
2023/04/25 15:01:50;;;;;;;;;1.00;1.00;;;;;16.03;53.16;-6932.31;5018634;28;45473;-84
2023/04/25 15:04:17;;;;;;;;;1.00;1.00;;;;;15.99;52.05;-5257.47;5035936;28;45745;-86
2023/04/25 15:06:42;;;;;;;;;1.00;0.00;;;;;16.10;52.66;-5257.81;5035889;28;45443;-86
2023/04/25 15:09:10;;;;;;;;;0.00;0.00;;;;;16.01;52.47;-5257.53;5036243;28;45423;-85
2023/04/25 15:11:36;;;;;;;;;0.00;0.00;;;;;16.13;52.43;-4587.72;5036559;28;45492;-86
2023/04/25 15:14:01;;;;;;;;;0.00;0.00;;;;;16.07;52.63;-4922.66;5035383;28;46458;-85
2023/04/25 15:16:27;;;;;;;;;0.00;0.00;;;;;16.13;52.75;-4587.69;5036118;28;45435;-85
2023/04/25 15:18:52;;;;;;;;;2.00;0.67;;;;;15.96;52.77;-4587.34;5036027;28;45471;-86
2023/04/25 15:21:17;;;;;;;;;1.67;1.67;;;;;15.86;53.12;-4587.13;5017303;28;47389;-86
2023/04/25 15:23:43;;;;;;;;;0.00;0.00;;;;;16.16;52.73;-4587.78;5035864;28;46650;-86
2023/04/25 15:26:08;;;;;;;;;0.00;0.00;;;;;15.83;52.77;-4252.09;5036005;28;45498;-86
2023/04/25 15:28:33;;;;;;;;;0.67;0.67;;;;;15.90;52.97;-4252.19;5035986;28;45443;-86
2023/04/25 15:30:59;;;;;;;;;0.00;0.00;;;;;15.88;52.61;-4252.16;5036299;28;45355;-87
2023/04/25 15:33:24;;;;;;;;;1.00;1.00;;;;;16.12;52.91;-3917.38;5035334;28;45529;-85
2023/04/25 15:35:49;;;;;;;;;2.00;2.00;;;;;15.72;52.63;-3916.94;5034463;28;45485;-87
2023/04/25 15:38:15;;;;;;;;;1.00;1.00;;;;;15.98;53.13;-3917.22;5032789;28;47083;-87
2023/04/25 15:40:40;;;;;;;;;0.00;0.00;;;;;15.90;53.03;-3917.16;5035424;28;45436;-87
2023/04/25 15:43:06;;;;;;;;;2.00;1.00;;;;;16.04;52.82;-3246.97;5035268;28;45662;-87
2023/04/25 15:45:32;;;;;;;;;1.00;1.00;;;;;15.93;52.82;-3582.09;5032061;28;45529;-89
2023/04/25 15:47:58;;;;;;;;;0.67;0.67;;;;;15.85;52.74;-3582.03;5018876;28;45718;-86
2023/04/25 15:50:23;;;;;;;;;2.00;1.00;;;;;16.13;52.87;-3582.19;5016918;28;45712;-90
2023/04/25 15:52:50;;;;;;;;;1.00;1.00;;;;;16.17;52.25;-2911.69;5035347;28;46191;-88
2023/04/25 15:55:16;;;;;;;;;2.00;1.00;;;;;15.82;52.19;-2911.88;5035596;28;45496;-90
2023/04/25 15:57:42;;;;;;;;;1.00;1.00;;;;;16.01;52.44;-2576.53;5036250;28;45856;-89
2023/04/25 16:00:11;;;;;;;;;2.33;2.33;;;;;16.07;51.54;-1905.88;5036134;28;45531;-88
2023/04/25 16:02:41;;;;;;;;;1.00;1.00;;;;;16.06;51.77;-1235.22;5035637;28;46873;-90
2023/04/25 16:05:07;;;;;;;;;1.00;1.00;;;;;15.91;51.39;-900.38;5017877;28;45526;-90
2023/04/25 16:07:33;;;;;;;;;1.00;1.00;;;;;15.79;51.00;-230.25;5036059;28;45420;-90
2023/04/25 16:09:58;;;;;;;;;1.33;1.33;;;;;16.00;52.34;-564.63;5035686;28;45406;-88
2023/04/25 16:12:24;;;;;;;;;1.00;1.00;;;;;15.87;51.10;776.38;5035630;28;45525;-88
2023/04/25 16:14:49;;;;;;;;;2.00;1.00;;;;;15.65;51.51;774.97;5035839;28;45874;-89
2023/04/25 16:17:15;;;;;;;;;1.00;1.00;;;;;15.80;50.93;1446.84;5017687;28;45766;-89
2023/04/25 16:19:41;;;;;;;;;1.33;1.33;;;;;15.90;51.19;2118.69;5036031;28;45343;-88
2023/04/25 16:22:08;;;;;;;;;0.00;0.00;;;;;15.78;51.15;2117.69;5035390;28;45713;-89
2023/04/25 16:24:33;;;;;;;;;0.00;0.00;;;;;15.89;51.40;1783.03;5035700;28;45527;-87